createdAt,value
2019-04-30T00:00:56.853Z,14.40
2019-04-30T00:04:37.537Z,14.49
2019-04-30T00:07:58.737Z,14.62
2019-04-30T00:11:21.947Z,14.53
2019-04-30T00:14:45.186Z,14.47
2019-04-30T00:18:08.404Z,14.51
2019-04-30T00:21:32.494Z,14.61
2019-04-30T00:24:55.758Z,14.61
2019-04-30T00:28:18.830Z,14.52
2019-04-30T00:31:41.883Z,14.62
2019-04-30T00:35:07.358Z,14.53
2019-04-30T00:38:34.270Z,14.49
2019-04-30T00:41:56.812Z,14.57
2019-04-30T00:45:20.037Z,14.63
2019-04-30T00:48:43.203Z,14.58
2019-04-30T00:52:06.307Z,14.53
2019-04-30T00:55:29.696Z,14.54
2019-04-30T00:58:57.475Z,14.31
2019-04-30T01:02:41.870Z,14.13
2019-04-30T01:06:07.238Z,14.27
2019-04-30T01:09:30.542Z,14.48
2019-04-30T01:12:53.894Z,14.40
2019-04-30T01:16:17.152Z,14.59
2019-04-30T01:19:40.519Z,14.53
2019-04-30T01:23:09.888Z,14.26
2019-04-30T01:26:31.068Z,14.51
2019-04-30T01:29:58.507Z,14.45
2019-04-30T01:33:21.674Z,14.42
2019-04-30T01:36:50.740Z,14.30
2019-04-30T01:40:13.560Z,14.43
2019-04-30T01:43:35.500Z,14.39
2019-04-30T01:46:58.912Z,14.04
2019-04-30T01:50:24.705Z,14.52
2019-04-30T01:53:48.488Z,14.17
2019-04-30T01:57:30.417Z,14.28
2019-04-30T02:00:59.503Z,14.28
2019-04-30T02:04:26.301Z,14.16
2019-04-30T02:07:49.371Z,14.01
2019-04-30T02:11:12.688Z,14.06
2019-04-30T02:14:35.781Z,14.10
2019-04-30T02:17:59.223Z,13.77
2019-04-30T02:21:22.903Z,14.06
2019-04-30T02:24:48.649Z,14.15
2019-04-30T02:28:11.895Z,14.03
2019-04-30T02:31:35.147Z,14.00
2019-04-30T02:35:20.811Z,14.12
2019-04-30T02:38:49.240Z,14.00
2019-04-30T02:42:13.236Z,13.83
2019-04-30T02:45:40.106Z,13.78
2019-04-30T02:49:05.572Z,13.95
2019-04-30T02:52:31.490Z,13.97
2019-04-30T02:55:56.822Z,14.16
2019-04-30T02:59:20.353Z,14.15
2019-04-30T03:02:43.614Z,14.26
2019-04-30T03:06:06.736Z,14.26
2019-04-30T03:09:30.405Z,14.15
2019-04-30T03:12:55.671Z,14.24
2019-04-30T03:16:23.035Z,14.07
2019-04-30T03:20:20.250Z,14.01
2019-04-30T03:23:38.988Z,14.04
2019-04-30T03:27:02.193Z,14.18
2019-04-30T03:30:25.286Z,14.01
2019-04-30T03:33:52.238Z,13.93
2019-04-30T03:37:13.410Z,13.92
2019-04-30T03:40:36.496Z,13.79
2019-04-30T03:44:16.753Z,13.89
2019-04-30T03:47:25.763Z,13.93
2019-04-30T03:50:55.812Z,13.78
2019-04-30T03:54:13.742Z,13.62
2019-04-30T03:57:39.697Z,13.60
2019-04-30T04:01:19.592Z,13.83
2019-04-30T04:04:52.946Z,13.73
2019-04-30T04:08:36.277Z,13.59
2019-04-30T04:12:20.368Z,13.80
2019-04-30T04:15:43.972Z,13.52
2019-04-30T04:19:09.527Z,13.72
2019-04-30T04:22:31.969Z,13.56
2019-04-30T04:25:55.174Z,13.67
2019-04-30T04:29:19.655Z,13.64
2019-04-30T04:32:43.193Z,13.57
2019-04-30T04:36:06.199Z,13.60
2019-04-30T04:39:29.799Z,13.59
2019-04-30T04:42:56.113Z,13.37
2019-04-30T04:46:20.592Z,13.65
2019-04-30T04:49:43.759Z,13.57
2019-04-30T04:53:08.880Z,13.62
2019-04-30T04:56:32.177Z,13.83
2019-04-30T04:59:55.346Z,13.85
2019-04-30T05:03:26.206Z,13.69
2019-04-30T05:06:49.960Z,13.88
2019-04-30T05:10:13.595Z,13.65
2019-04-30T05:13:36.637Z,13.47
2019-04-30T05:17:00.953Z,13.30
2019-04-30T05:20:26.506Z,13.33
2019-04-30T05:23:49.712Z,13.26
2019-04-30T05:27:12.814Z,13.44
2019-04-30T05:30:35.978Z,13.56
2019-04-30T05:33:59.068Z,13.81
2019-04-30T05:37:22.499Z,13.78
2019-04-30T05:40:45.750Z,13.58
2019-04-30T05:44:09.151Z,13.62
2019-04-30T05:47:32.262Z,13.91
2019-04-30T05:50:56.246Z,13.86
2019-04-30T05:54:19.967Z,13.90
2019-04-30T05:57:53.024Z,13.59
2019-04-30T06:01:09.659Z,13.86
2019-04-30T06:04:33.031Z,13.79
2019-04-30T06:07:56.131Z,14.04
2019-04-30T06:11:39.323Z,13.98
2019-04-30T06:15:25.925Z,13.70
2019-04-30T06:18:49.056Z,13.98
2019-04-30T06:22:12.151Z,13.91
2019-04-30T06:25:52.871Z,13.92
2019-04-30T06:29:00.743Z,14.11
2019-04-30T06:32:29.424Z,14.15
2019-04-30T06:35:54.706Z,14.33
2019-04-30T06:39:18.763Z,14.38
2019-04-30T06:42:42.279Z,14.51
2019-04-30T06:46:05.295Z,14.48
2019-04-30T06:49:29.508Z,14.50
2019-04-30T06:52:56.843Z,14.70
2019-04-30T06:56:18.993Z,15.06
2019-04-30T06:59:42.139Z,14.83
2019-04-30T07:03:06.508Z,15.32
2019-04-30T07:06:32.547Z,15.23
2019-04-30T07:10:02.410Z,15.25
2019-04-30T07:13:29.727Z,15.74
2019-04-30T07:16:55.224Z,16.00
2019-04-30T07:20:19.150Z,15.34
2019-04-30T07:23:42.475Z,15.55
2019-04-30T07:27:05.552Z,15.59
2019-04-30T07:30:30.840Z,15.79
2019-04-30T07:33:56.069Z,15.90
2019-04-30T07:37:24.100Z,16.14
2019-04-30T07:40:44.424Z,16.19
2019-04-30T07:44:10.833Z,16.52
2019-04-30T07:47:32.610Z,16.83
2019-04-30T07:50:55.977Z,17.11
2019-04-30T07:54:19.115Z,17.34
2019-04-30T07:57:42.206Z,17.71
2019-04-30T08:01:05.287Z,17.83
2019-04-30T08:04:50.931Z,18.00
2019-04-30T08:08:20.924Z,17.36
2019-04-30T08:11:41.857Z,17.95
2019-04-30T08:15:04.069Z,17.53
2019-04-30T08:18:27.214Z,17.77
2019-04-30T08:21:50.368Z,18.15
2019-04-30T08:25:13.512Z,18.25
2019-04-30T08:28:38.480Z,17.71
2019-04-30T08:32:01.980Z,17.64
2019-04-30T08:35:25.054Z,17.14
2019-04-30T08:38:49.564Z,17.29
2019-04-30T08:42:12.969Z,17.64
2019-04-30T08:45:36.014Z,17.51
2019-04-30T08:48:59.759Z,17.23
2019-04-30T08:52:25.990Z,16.90
2019-04-30T08:55:49.244Z,16.83
2019-04-30T08:59:12.402Z,17.00
2019-04-30T09:02:35.638Z,17.49
2019-04-30T09:06:21.672Z,17.79
2019-04-30T09:09:45.081Z,17.30
2019-04-30T09:13:10.018Z,16.81
2019-04-30T09:16:33.266Z,17.45
2019-04-30T09:19:58.917Z,17.87
2019-04-30T09:23:22.077Z,18.20
2019-04-30T09:26:45.470Z,18.36
2019-04-30T09:30:10.364Z,18.26
2019-04-30T09:33:33.620Z,18.61
2019-04-30T09:36:58.700Z,19.02
2019-04-30T09:40:22.083Z,18.42
2019-04-30T09:43:45.414Z,18.82
2019-04-30T09:47:09.004Z,19.31
2019-04-30T09:50:32.307Z,19.06
2019-04-30T09:53:59.503Z,19.09
2019-04-30T09:57:20.382Z,19.44
2019-04-30T10:00:43.477Z,19.48
2019-04-30T10:04:09.873Z,19.72
2019-04-30T10:07:32.958Z,19.82
2019-04-30T10:11:10.697Z,20.57
2019-04-30T10:14:33.905Z,21.65
2019-04-30T10:17:57.159Z,22.06
2019-04-30T10:21:20.401Z,22.85
2019-04-30T10:24:43.509Z,22.23
2019-04-30T10:28:06.914Z,22.57
2019-04-30T10:31:30.418Z,23.81
2019-04-30T10:34:53.911Z,23.42
2019-04-30T10:38:17.065Z,24.91
2019-04-30T10:41:40.399Z,24.14
2019-04-30T10:45:14.645Z,24.05
2019-04-30T10:48:37.683Z,23.49
2019-04-30T10:52:01.231Z,26.04
2019-04-30T10:55:25.673Z,24.03
2019-04-30T10:58:48.757Z,26.22
2019-04-30T11:02:11.775Z,26.32
2019-04-30T11:05:34.841Z,25.93
2019-04-30T11:08:58.191Z,25.13
2019-04-30T11:12:21.200Z,25.50
2019-04-30T11:15:44.607Z,24.93
2019-04-30T11:19:09.408Z,27.44
2019-04-30T11:22:33.240Z,28.40
2019-04-30T11:25:57.003Z,27.71
2019-04-30T11:29:23.021Z,28.07
2019-04-30T11:32:45.894Z,26.99
2019-04-30T11:36:09.670Z,27.63
2019-04-30T11:39:32.834Z,27.57
2019-04-30T11:42:56.327Z,26.45
2019-04-30T11:47:28.826Z,27.96
2019-04-30T11:50:51.975Z,27.44
2019-04-30T11:54:15.037Z,25.89
2019-04-30T11:57:39.722Z,28.42
2019-04-30T12:01:04.082Z,27.50
2019-04-30T12:04:27.172Z,25.69
2019-04-30T12:08:03.451Z,27.87
2019-04-30T12:11:31.941Z,28.35
2019-04-30T12:14:55.126Z,29.63
2019-04-30T12:18:18.180Z,28.41
2019-04-30T12:21:41.447Z,28.27
2019-04-30T12:25:05.497Z,30.68
2019-04-30T12:28:29.896Z,28.92
2019-04-30T12:31:55.244Z,29.49
2019-04-30T12:35:18.402Z,29.06
2019-04-30T12:38:41.396Z,30.61
2019-04-30T12:42:04.730Z,29.83
2019-04-30T12:45:29.432Z,30.83
2019-04-30T12:49:00.862Z,29.41
2019-04-30T12:52:39.635Z,27.59
2019-04-30T12:56:13.650Z,29.65
2019-04-30T12:59:36.686Z,30.19
2019-04-30T13:02:59.901Z,29.40
2019-04-30T13:06:25.713Z,28.50
2019-04-30T13:09:50.042Z,27.73
2019-04-30T13:13:14.465Z,30.29
2019-04-30T13:16:39.274Z,29.99
2019-04-30T13:20:02.489Z,30.00
2019-04-30T13:23:25.814Z,30.97
2019-04-30T13:26:49.477Z,32.40
2019-04-30T13:30:26.820Z,29.51
2019-04-30T13:33:54.376Z,28.80
2019-04-30T13:37:19.215Z,29.43
2019-04-30T13:41:08.890Z,29.17
2019-04-30T13:44:35.812Z,29.54
2019-04-30T13:47:58.944Z,32.86
2019-04-30T13:51:22.174Z,28.88
2019-04-30T13:54:47.149Z,29.03
2019-04-30T13:58:10.451Z,30.55
2019-04-30T14:01:33.593Z,30.02
2019-04-30T14:05:13.151Z,30.71
2019-04-30T14:08:41.194Z,29.68
2019-04-30T14:12:04.351Z,31.11
2019-04-30T14:15:29.154Z,30.83
2019-04-30T14:18:58.508Z,31.11
2019-04-30T14:22:21.850Z,30.76
2019-04-30T14:25:55.888Z,30.54
2019-04-30T14:29:10.458Z,30.41
2019-04-30T14:32:33.683Z,31.37
2019-04-30T14:35:56.815Z,29.73
2019-04-30T14:39:20.512Z,31.47
2019-04-30T14:42:50.795Z,30.86
2019-04-30T14:46:40.128Z,31.19
2019-04-30T14:50:10.006Z,32.29
2019-04-30T14:54:05.349Z,31.59
2019-04-30T14:57:46.505Z,30.99
2019-04-30T15:01:39.312Z,31.70
2019-04-30T15:05:09.315Z,31.22
2019-04-30T15:08:32.899Z,31.31
2019-04-30T15:11:56.139Z,30.35
2019-04-30T15:15:19.467Z,30.95
2019-04-30T15:18:43.213Z,30.51
2019-04-30T15:22:08.686Z,31.49
2019-04-30T15:25:34.070Z,31.49
2019-04-30T15:28:59.890Z,31.33
2019-04-30T15:32:23.128Z,31.48
2019-04-30T15:35:48.207Z,31.46
2019-04-30T15:39:39.110Z,32.33
2019-04-30T15:43:04.271Z,32.15
2019-04-30T15:46:27.642Z,31.28
2019-04-30T15:49:50.678Z,30.31
2019-04-30T15:53:16.029Z,31.65
2019-04-30T15:56:40.848Z,31.08
2019-04-30T16:00:05.652Z,31.53
2019-04-30T16:03:31.595Z,32.08
2019-04-30T16:06:58.527Z,31.23
2019-04-30T16:10:36.187Z,31.53
2019-04-30T16:14:19.176Z,29.69
2019-04-30T16:17:44.599Z,30.25
2019-04-30T16:21:09.296Z,30.79
2019-04-30T16:24:33.797Z,29.02
2019-04-30T16:27:57.005Z,27.67
2019-04-30T16:31:20.543Z,27.19
2019-04-30T16:34:44.027Z,27.02
2019-04-30T16:38:09.229Z,25.75
2019-04-30T16:41:32.616Z,25.03
2019-04-30T16:44:56.441Z,25.20
2019-04-30T16:48:19.648Z,25.50
2019-04-30T16:51:44.522Z,24.49
2019-04-30T16:55:08.256Z,24.46
2019-04-30T16:58:51.266Z,23.91
2019-04-30T17:02:14.504Z,23.71
2019-04-30T17:05:55.025Z,22.99
2019-04-30T17:09:28.151Z,22.76
2019-04-30T17:13:01.413Z,22.05
2019-04-30T17:16:26.966Z,21.92
2019-04-30T17:19:50.037Z,21.46
2019-04-30T17:23:13.284Z,21.82
2019-04-30T17:26:36.471Z,21.83
2019-04-30T17:29:59.518Z,21.29
2019-04-30T17:33:25.844Z,21.24
2019-04-30T17:36:49.572Z,20.88
2019-04-30T17:40:13.808Z,21.03
2019-04-30T17:43:36.972Z,20.75
2019-04-30T17:47:00.225Z,20.67
2019-04-30T17:50:25.713Z,20.61
2019-04-30T17:54:09.755Z,20.35
2019-04-30T17:57:34.661Z,20.25
2019-04-30T18:01:00.413Z,20.14
2019-04-30T18:04:26.772Z,19.80
2019-04-30T18:07:49.978Z,19.74
2019-04-30T18:11:19.942Z,19.50
2019-04-30T18:14:45.058Z,19.58
2019-04-30T18:18:21.460Z,19.53
2019-04-30T18:21:50.474Z,19.29
2019-04-30T18:25:33.503Z,18.87
2019-04-30T18:29:02.083Z,18.84
2019-04-30T18:32:32.117Z,18.69
2019-04-30T18:35:55.845Z,18.45
2019-04-30T18:39:20.248Z,18.38
2019-04-30T18:42:45.537Z,18.22
2019-04-30T18:46:13.069Z,17.80
2019-04-30T18:49:36.731Z,17.84
2019-04-30T18:53:05.563Z,17.85
2019-04-30T18:57:02.949Z,17.76
2019-04-30T19:00:40.879Z,17.71
2019-04-30T19:04:15.900Z,17.61
2019-04-30T19:07:50.961Z,17.50
2019-04-30T19:11:29.389Z,17.22
2019-04-30T19:15:13.984Z,17.26
2019-04-30T19:18:50.465Z,17.31
2019-04-30T19:22:13.986Z,17.23
2019-04-30T19:25:38.635Z,16.94
2019-04-30T19:29:02.256Z,17.04
2019-04-30T19:32:25.872Z,16.64
2019-04-30T19:35:50.601Z,16.81
2019-04-30T19:39:16.266Z,16.51
2019-04-30T19:42:40.014Z,16.41
2019-04-30T19:46:03.536Z,16.44
2019-04-30T19:49:30.483Z,16.34
2019-04-30T19:52:55.847Z,16.39
2019-04-30T19:56:20.724Z,16.17
2019-04-30T19:59:45.220Z,16.12
2019-04-30T20:03:08.861Z,15.83
2019-04-30T20:06:32.725Z,16.10
2019-04-30T20:10:01.107Z,15.79
2019-04-30T20:13:31.366Z,15.62
2019-04-30T20:16:49.126Z,15.68
2019-04-30T20:20:14.159Z,15.45
2019-04-30T20:23:38.908Z,15.49
2019-04-30T20:27:09.549Z,15.37
2019-04-30T20:30:30.783Z,15.34
2019-04-30T20:33:55.608Z,15.47
2019-04-30T20:37:19.621Z,15.44
2019-04-30T20:40:57.739Z,15.23
2019-04-30T20:44:10.777Z,15.06
2019-04-30T20:47:35.917Z,15.07
2019-04-30T20:51:01.078Z,15.00
2019-04-30T20:54:26.188Z,14.89
2019-04-30T20:57:49.795Z,14.80
2019-04-30T21:01:13.392Z,14.79
2019-04-30T21:04:36.501Z,14.78
2019-04-30T21:08:03.469Z,14.76
2019-04-30T21:11:28.598Z,14.53
2019-04-30T21:14:51.589Z,14.45
2019-04-30T21:18:14.953Z,14.71
2019-04-30T21:21:38.710Z,14.48
2019-04-30T21:25:03.521Z,14.37
2019-04-30T21:28:29.740Z,14.33
2019-04-30T21:32:12.691Z,14.57
2019-04-30T21:35:44.800Z,14.54
2019-04-30T21:39:12.378Z,14.25
2019-04-30T21:42:35.436Z,14.16
2019-04-30T21:45:59.788Z,14.21
2019-04-30T21:49:24.551Z,14.30
2019-04-30T21:52:49.484Z,14.39
2019-04-30T21:56:12.485Z,14.14
2019-04-30T21:59:35.460Z,14.01
2019-04-30T22:02:59.772Z,14.04
2019-04-30T22:06:25.715Z,13.96
2019-04-30T22:09:48.738Z,13.77
2019-04-30T22:13:11.794Z,13.64
2019-04-30T22:16:34.929Z,13.62
2019-04-30T22:19:59.637Z,13.59
2019-04-30T22:23:25.154Z,13.62
2019-04-30T22:26:48.167Z,13.37
2019-04-30T22:30:11.863Z,13.48
2019-04-30T22:33:35.008Z,13.31
2019-04-30T22:36:58.685Z,13.09
2019-04-30T22:40:29.025Z,13.09
2019-04-30T22:43:52.948Z,13.08
2019-04-30T22:47:16.073Z,13.00
2019-04-30T22:50:39.223Z,13.00
2019-04-30T22:54:02.311Z,12.92
2019-04-30T22:57:25.538Z,12.83
2019-04-30T23:00:50.811Z,12.68
2019-04-30T23:04:21.189Z,12.62
2019-04-30T23:07:44.332Z,12.59
2019-04-30T23:11:07.396Z,12.66
2019-04-30T23:14:30.567Z,12.65
2019-04-30T23:17:55.823Z,12.45
2019-04-30T23:21:18.968Z,12.46
2019-04-30T23:24:42.009Z,12.40
2019-04-30T23:28:05.087Z,12.31
2019-04-30T23:31:28.304Z,12.23
2019-04-30T23:34:51.375Z,12.16
2019-04-30T23:38:14.510Z,12.32
2019-04-30T23:41:37.567Z,12.33
2019-04-30T23:45:00.790Z,12.38
2019-04-30T23:48:25.737Z,12.17
2019-04-30T23:51:50.535Z,12.00
2019-04-30T23:55:13.863Z,11.94
2019-04-30T23:58:36.966Z,12.04
